CheckWX is a tool to help pilots better visualize weather data.  It is not intended as a substitute for an official pre-flight weather briefing.

11:48:14 UTC

LGSA TAF
Chania International Airport
Souda, Greece
TAF LGSA 251100Z 2512/2612 06010KT 9999 FEW025 BECMG 2520/2522 22012KT

Feb-25@
12:00 UTC

Feb-25 @ 12:00 UTC

Feb-25@
20:00 UTC

Feb-25 @ 20:00 UTC

TAF LGSA 251100Z 2512/2612 06010KT 9999 FEW025
Wind
  • 060° at 10 KTS
Cloud Levels
  • Few at 2,500' AGL

Feb-25@
20:00 UTC

Feb-25 @ 20:00 UTC

Feb-26@
12:00 UTC

Feb-26 @ 12:00 UTC

BECMG 2520/2522 22012KT

Becoming

Becoming Conditions expected by Tue, Feb 25, 2020 @ 22:00 UTC

Wind
  • 220° at 12 KTS
Cloud Levels
  • Few at 2,500' AGL